createdAt,value
2022-12-11T00:01:20.119Z,-0.20
2022-12-11T00:03:48.108Z,-0.17
2022-12-11T00:06:16.911Z,-0.09
2022-12-11T00:08:43.741Z,-0.06
2022-12-11T00:11:13.928Z,-0.20
2022-12-11T00:13:40.666Z,-0.11
2022-12-11T00:16:07.702Z,-0.21
2022-12-11T00:18:34.457Z,-0.22
2022-12-11T00:21:02.422Z,-0.29
2022-12-11T00:23:29.311Z,-0.27
2022-12-11T00:25:56.084Z,-0.26
2022-12-11T00:28:23.562Z,-0.18
2022-12-11T00:30:50.309Z,-0.31
2022-12-11T00:33:17.466Z,-0.31
2022-12-11T00:35:46.774Z,-0.20
2022-12-11T00:38:16.808Z,-0.26
2022-12-11T00:40:44.185Z,-0.30
2022-12-11T00:43:11.256Z,-0.30
2022-12-11T00:45:40.411Z,-0.42
2022-12-11T00:48:09.548Z,-0.35
2022-12-11T00:50:36.801Z,-0.49
2022-12-11T00:53:05.037Z,-0.49
2022-12-11T00:55:32.285Z,-0.42
2022-12-11T00:57:58.986Z,-0.46
2022-12-11T01:00:25.795Z,-0.38
2022-12-11T01:02:52.577Z,-0.26
2022-12-11T01:05:19.330Z,-0.38
2022-12-11T01:07:46.068Z,-0.38
2022-12-11T01:10:28.936Z,-0.35
2022-12-11T01:12:59.241Z,-0.45
2022-12-11T01:15:29.151Z,-0.40
2022-12-11T01:17:56.127Z,-0.37
2022-12-11T01:20:24.969Z,-0.33
2022-12-11T01:22:54.731Z,-0.28
2022-12-11T01:25:21.985Z,-0.27
2022-12-11T01:27:51.852Z,-0.42
2022-12-11T01:30:19.461Z,-0.44
2022-12-11T01:32:46.089Z,-0.49
2022-12-11T01:35:13.459Z,-0.49
2022-12-11T01:37:40.787Z,-0.46
2022-12-11T01:40:08.682Z,-0.40
2022-12-11T01:42:35.844Z,-0.46
2022-12-11T01:45:27.388Z,-0.44
2022-12-11T01:48:00.893Z,-0.47
2022-12-11T01:50:29.321Z,-0.45
2022-12-11T01:52:56.117Z,-0.51
2022-12-11T01:55:23.097Z,-0.57
2022-12-11T01:57:52.258Z,-0.48
2022-12-11T02:00:20.610Z,-0.51
2022-12-11T02:02:47.458Z,-0.58
2022-12-11T02:05:14.442Z,-0.57
2022-12-11T02:07:48.402Z,-0.55
2022-12-11T02:10:15.686Z,-0.57
2022-12-11T02:12:52.216Z,-0.60
2022-12-11T02:15:33.520Z,-0.60
2022-12-11T02:18:03.164Z,-0.58
2022-12-11T02:20:44.806Z,-0.51
2022-12-11T02:23:13.423Z,-0.49
2022-12-11T02:25:40.053Z,-0.50
2022-12-11T02:28:21.960Z,-0.45
2022-12-11T02:30:55.351Z,-0.46
2022-12-11T02:33:27.278Z,-0.40
2022-12-11T02:35:55.038Z,-0.44
2022-12-11T02:38:28.543Z,-0.43
2022-12-11T02:40:58.220Z,-0.40
2022-12-11T02:43:25.917Z,-0.43
2022-12-11T02:45:54.296Z,-0.47
2022-12-11T02:48:24.330Z,-0.45
2022-12-11T02:50:55.506Z,-0.45
2022-12-11T02:53:26.206Z,-0.44
2022-12-11T02:56:01.096Z,-0.49
2022-12-11T02:58:32.296Z,-0.50
2022-12-11T03:00:59.344Z,-0.53
2022-12-11T03:03:30.861Z,-0.53
2022-12-11T03:05:57.609Z,-0.62
2022-12-11T03:08:24.395Z,-0.56
2022-12-11T03:10:51.142Z,-0.57
2022-12-11T03:13:20.947Z,-0.53
2022-12-11T03:16:07.828Z,-0.57
2022-12-11T03:18:35.737Z,-0.63
2022-12-11T03:21:06.052Z,-0.69
2022-12-11T03:23:41.426Z,-0.70
2022-12-11T03:26:12.643Z,-0.68
2022-12-11T03:28:50.866Z,-0.68
2022-12-11T03:31:27.323Z,-0.70
2022-12-11T03:33:56.422Z,-0.65
2022-12-11T03:36:27.235Z,-0.55
2022-12-11T03:39:01.039Z,-0.65
2022-12-11T03:41:31.299Z,-0.66
2022-12-11T03:43:59.140Z,-0.71
2022-12-11T03:46:32.445Z,-0.62
2022-12-11T03:49:04.693Z,-0.56
2022-12-11T03:51:33.263Z,-0.57
2022-12-11T03:54:00.433Z,-0.58
2022-12-11T03:56:30.411Z,-0.57
2022-12-11T03:58:57.093Z,-0.62
2022-12-11T04:01:23.795Z,-0.53
2022-12-11T04:03:50.550Z,-0.63
2022-12-11T04:06:17.184Z,-0.64
2022-12-11T04:08:43.861Z,-0.68
2022-12-11T04:11:25.750Z,-0.67
2022-12-11T04:14:12.339Z,-0.71
2022-12-11T04:16:39.024Z,-0.70
2022-12-11T04:19:21.868Z,-0.67
2022-12-11T04:22:03.987Z,-0.55
2022-12-11T04:24:30.660Z,-0.53
2022-12-11T04:26:57.275Z,-0.51
2022-12-11T04:29:24.011Z,-0.62
2022-12-11T04:31:50.795Z,-0.60
2022-12-11T04:34:17.680Z,-0.65
2022-12-11T04:36:44.376Z,-0.61
2022-12-11T04:39:11.068Z,-0.61
2022-12-11T04:41:39.033Z,-0.53
2022-12-11T04:44:05.774Z,-0.56
2022-12-11T04:46:33.359Z,-0.56
2022-12-11T04:49:00.686Z,-0.59
2022-12-11T04:51:28.477Z,-0.61
2022-12-11T04:53:55.616Z,-0.61
2022-12-11T04:56:22.520Z,-0.57
2022-12-11T04:58:49.249Z,-0.54
2022-12-11T05:01:18.314Z,-0.60
2022-12-11T05:03:45.803Z,-0.61
2022-12-11T05:06:13.257Z,-0.64
2022-12-11T05:08:42.296Z,-0.71
2022-12-11T05:11:14.894Z,-0.74
2022-12-11T05:13:42.787Z,-0.80
2022-12-11T05:16:12.196Z,-0.77
2022-12-11T05:18:39.558Z,-0.85
2022-12-11T05:21:09.314Z,-0.89
2022-12-11T05:23:36.633Z,-0.92
2022-12-11T05:26:07.096Z,-0.92
2022-12-11T05:28:37.026Z,-0.91
2022-12-11T05:31:06.919Z,-0.92
2022-12-11T05:33:34.333Z,-0.90
2022-12-11T05:36:01.621Z,-0.93
2022-12-11T05:38:28.300Z,-1.04
2022-12-11T05:40:57.957Z,-1.02
2022-12-11T05:43:25.217Z,-1.05
2022-12-11T05:45:51.864Z,-1.08
2022-12-11T05:48:18.559Z,-0.97
2022-12-11T05:50:45.783Z,-0.96
2022-12-11T05:53:12.426Z,-1.06
2022-12-11T05:55:39.156Z,-1.13
2022-12-11T05:58:05.783Z,-1.20
2022-12-11T06:00:36.012Z,-1.15
2022-12-11T06:03:03.134Z,-1.13
2022-12-11T06:05:29.946Z,-1.10
2022-12-11T06:07:56.611Z,-1.13
2022-12-11T06:10:23.293Z,-1.11
2022-12-11T06:12:49.924Z,-1.16
2022-12-11T06:15:16.648Z,-1.23
2022-12-11T06:17:43.281Z,-1.09
2022-12-11T06:20:10.212Z,-1.17
2022-12-11T06:22:36.890Z,-1.24
2022-12-11T06:25:03.901Z,-1.20
2022-12-11T06:27:31.111Z,-1.13
2022-12-11T06:29:57.826Z,-1.16
2022-12-11T06:32:25.042Z,-1.15
2022-12-11T06:34:51.723Z,-1.13
2022-12-11T06:37:18.646Z,-1.18
2022-12-11T06:39:45.290Z,-1.28
2022-12-11T06:42:13.012Z,-1.23
2022-12-11T06:44:40.043Z,-1.28
2022-12-11T06:47:06.649Z,-1.33
2022-12-11T06:49:33.420Z,-1.30
2022-12-11T06:52:00.289Z,-1.31
2022-12-11T06:54:27.862Z,-1.21
2022-12-11T06:56:54.668Z,-1.23
2022-12-11T06:59:21.338Z,-1.30
2022-12-11T07:01:48.418Z,-1.31
2022-12-11T07:04:15.184Z,-1.32
2022-12-11T07:06:41.855Z,-1.24
2022-12-11T07:09:08.542Z,-1.18
2022-12-11T07:11:35.201Z,-1.27
2022-12-11T07:14:01.846Z,-1.27
2022-12-11T07:16:28.570Z,-1.35
2022-12-11T07:18:58.474Z,-1.32
2022-12-11T07:21:25.203Z,-1.32
2022-12-11T07:23:51.867Z,-1.39
2022-12-11T07:26:21.028Z,-1.33
2022-12-11T07:28:47.985Z,-1.29
2022-12-11T07:31:18.236Z,-1.25
2022-12-11T07:33:45.694Z,-1.32
2022-12-11T07:36:15.006Z,-1.41
2022-12-11T07:38:41.826Z,-1.37
2022-12-11T07:41:12.388Z,-1.29
2022-12-11T07:43:39.315Z,-1.34
2022-12-11T07:46:08.616Z,-1.33
2022-12-11T07:48:36.545Z,-1.40
2022-12-11T07:51:19.918Z,-1.38
2022-12-11T07:53:49.209Z,-1.33
2022-12-11T07:56:17.193Z,-1.38
2022-12-11T07:58:43.877Z,-1.36
2022-12-11T08:01:14.357Z,-1.40
2022-12-11T08:03:41.051Z,-1.44
2022-12-11T08:06:08.647Z,-1.42
2022-12-11T08:08:35.389Z,-1.47
2022-12-11T08:11:04.585Z,-1.41
2022-12-11T08:13:31.756Z,-1.42
2022-12-11T08:15:59.057Z,-1.43
2022-12-11T08:18:25.797Z,-1.43
2022-12-11T08:20:52.486Z,-1.37
2022-12-11T08:23:19.262Z,-1.40
2022-12-11T08:25:46.176Z,-1.38
2022-12-11T08:28:12.818Z,-1.43
2022-12-11T08:30:40.508Z,-1.41
2022-12-11T08:33:07.663Z,-1.43
2022-12-11T08:35:43.352Z,-1.47
2022-12-11T08:38:09.984Z,-1.56
2022-12-11T08:40:36.671Z,-1.51
2022-12-11T08:43:03.739Z,-1.55
2022-12-11T08:45:30.427Z,-1.51
2022-12-11T08:47:59.309Z,-1.53
2022-12-11T08:50:26.144Z,-1.44
2022-12-11T08:52:53.861Z,-1.38
2022-12-11T08:55:22.022Z,-1.34
2022-12-11T08:57:48.730Z,-1.35
2022-12-11T09:00:15.903Z,-1.24
2022-12-11T09:02:42.591Z,-1.23
2022-12-11T09:05:10.088Z,-1.22
2022-12-11T09:07:38.654Z,-1.15
2022-12-11T09:10:06.995Z,-1.18
2022-12-11T09:12:35.032Z,-1.14
2022-12-11T09:15:01.785Z,-1.06
2022-12-11T09:17:28.388Z,-0.98
2022-12-11T09:19:55.097Z,-0.90
2022-12-11T09:22:21.787Z,-0.77
2022-12-11T09:24:48.457Z,-0.75
2022-12-11T09:27:15.176Z,-0.73
2022-12-11T09:29:41.942Z,-0.78
2022-12-11T09:32:08.636Z,-0.73
2022-12-11T09:34:35.306Z,-0.80
2022-12-11T09:37:02.491Z,-0.89
2022-12-11T09:39:29.172Z,-1.04
2022-12-11T09:41:55.823Z,-1.05
2022-12-11T09:44:30.127Z,-1.18
2022-12-11T09:46:58.191Z,-1.28
2022-12-11T09:49:39.828Z,-1.26
2022-12-11T09:52:12.590Z,-1.32
2022-12-11T09:54:49.295Z,-1.35
2022-12-11T09:57:37.484Z,-1.44
2022-12-11T10:00:11.432Z,-1.52
2022-12-11T10:03:13.443Z,-1.54
2022-12-11T10:06:07.966Z,-1.46
2022-12-11T10:08:50.674Z,-1.39
2022-12-11T10:11:40.090Z,-1.34
2022-12-11T10:14:16.119Z,-1.27
2022-12-11T10:16:50.517Z,-1.28
2022-12-11T10:19:22.181Z,-1.23
2022-12-11T10:21:51.626Z,-1.17
2022-12-11T10:25:05.755Z,-1.10
2022-12-11T10:27:20.447Z,-1.12
2022-12-11T10:29:48.952Z,-1.30
2022-12-11T10:32:24.835Z,-1.31
2022-12-11T10:35:00.157Z,-1.28
2022-12-11T10:37:27.265Z,-1.28
2022-12-11T10:39:54.001Z,-1.32
2022-12-11T10:42:23.042Z,-1.39
2022-12-11T10:45:01.806Z,-1.42
2022-12-11T10:47:28.619Z,-1.54
2022-12-11T10:49:59.489Z,-1.52
2022-12-11T10:52:31.684Z,-1.49
2022-12-11T10:55:17.632Z,-1.58
2022-12-11T10:57:44.592Z,-1.56
2022-12-11T11:00:29.631Z,-1.61
2022-12-11T11:02:56.440Z,-1.58
2022-12-11T11:05:34.658Z,-1.70
2022-12-11T11:08:14.738Z,-1.60
2022-12-11T11:10:58.190Z,-1.62
2022-12-11T11:13:27.595Z,-1.63
2022-12-11T11:16:06.305Z,-1.59
2022-12-11T11:18:34.101Z,-1.61
2022-12-11T11:21:05.182Z,-1.65
2022-12-11T11:23:31.983Z,-1.64
2022-12-11T11:26:01.841Z,-1.56
2022-12-11T11:28:30.646Z,-1.59
2022-12-11T11:30:59.782Z,-1.60
2022-12-11T11:33:27.483Z,-1.55
2022-12-11T11:36:05.261Z,-1.52
2022-12-11T11:38:33.751Z,-1.54
2022-12-11T11:41:14.891Z,-1.53
2022-12-11T11:43:53.256Z,-1.49
2022-12-11T11:46:26.209Z,-1.47
2022-12-11T11:49:00.392Z,-1.42
2022-12-11T11:51:34.362Z,-1.49
2022-12-11T11:54:08.671Z,-1.48
2022-12-11T11:56:37.947Z,-1.43
2022-12-11T11:59:19.979Z,-1.40
2022-12-11T12:01:47.611Z,-1.44
2022-12-11T12:04:14.630Z,-1.41
2022-12-11T12:06:57.933Z,-1.42
2022-12-11T12:09:44.739Z,-1.42
2022-12-11T12:12:27.630Z,-1.41
2022-12-11T12:14:58.414Z,-1.43
2022-12-11T12:17:40.300Z,-1.45
2022-12-11T12:20:27.028Z,-1.38
2022-12-11T12:22:59.210Z,-1.39
2022-12-11T12:25:37.637Z,-1.43
2022-12-11T12:28:29.582Z,-1.40
2022-12-11T12:31:11.510Z,-1.43
2022-12-11T12:34:02.375Z,-1.46
2022-12-11T12:36:44.354Z,-1.51
2022-12-11T12:39:39.241Z,-1.56
2022-12-11T12:42:26.850Z,-1.50
2022-12-11T12:44:53.488Z,-1.49
2022-12-11T12:47:21.155Z,-1.44
2022-12-11T12:49:51.077Z,-1.51
2022-12-11T12:52:32.938Z,-1.53
2022-12-11T12:55:20.793Z,-1.51
2022-12-11T12:57:51.753Z,-1.45
2022-12-11T13:00:32.346Z,-1.42
2022-12-11T13:03:02.364Z,-1.44
2022-12-11T13:05:34.202Z,-1.48
2022-12-11T13:08:03.851Z,-1.44
2022-12-11T13:10:34.477Z,-1.47
2022-12-11T13:13:02.782Z,-1.46
2022-12-11T13:15:31.485Z,-1.46
2022-12-11T13:17:59.545Z,-1.42
2022-12-11T13:20:30.387Z,-1.49
2022-12-11T13:23:17.406Z,-1.46
2022-12-11T13:25:52.935Z,-1.54
2022-12-11T13:28:24.972Z,-1.56
2022-12-11T13:31:26.421Z,-1.56
2022-12-11T13:33:56.510Z,-1.56
2022-12-11T13:36:28.779Z,-1.52
2022-12-11T13:39:00.757Z,-1.53
2022-12-11T13:41:28.632Z,-1.56
2022-12-11T13:43:57.169Z,-1.49
2022-12-11T13:46:29.641Z,-1.51
2022-12-11T13:49:01.337Z,-1.51
2022-12-11T13:51:31.894Z,-1.53
2022-12-11T13:54:17.373Z,-1.49
2022-12-11T13:57:01.689Z,-1.45
2022-12-11T13:59:34.144Z,-1.47
2022-12-11T14:02:13.106Z,-1.47
2022-12-11T14:04:40.295Z,-1.60
2022-12-11T14:07:10.569Z,-1.62
2022-12-11T14:09:43.517Z,-1.61
2022-12-11T14:12:20.548Z,-1.71
2022-12-11T14:14:51.743Z,-1.60
2022-12-11T14:17:25.666Z,-1.74
2022-12-11T14:19:54.765Z,-1.77
2022-12-11T14:22:25.590Z,-1.73
2022-12-11T14:24:56.536Z,-1.80
2022-12-11T14:27:23.944Z,-1.68
2022-12-11T14:29:51.326Z,-1.69
2022-12-11T14:32:25.245Z,-1.78
2022-12-11T14:34:53.295Z,-1.71
2022-12-11T14:37:23.316Z,-1.77
2022-12-11T14:39:56.082Z,-1.75
2022-12-11T14:42:31.235Z,-1.77
2022-12-11T14:45:08.671Z,-1.80
2022-12-11T14:47:42.289Z,-1.73
2022-12-11T14:50:24.984Z,-1.74
2022-12-11T14:52:58.915Z,-1.81
2022-12-11T14:55:29.574Z,-1.85
2022-12-11T14:58:00.040Z,-1.92
2022-12-11T15:00:28.395Z,-1.94
2022-12-11T15:03:08.007Z,-1.95
2022-12-11T15:05:49.959Z,-1.91
2022-12-11T15:08:25.913Z,-1.89
2022-12-11T15:11:17.291Z,-1.89
2022-12-11T15:14:00.670Z,-1.91
2022-12-11T15:16:31.953Z,-1.94
2022-12-11T15:18:59.005Z,-1.93
2022-12-11T15:21:34.155Z,-1.98
2022-12-11T15:24:04.371Z,-1.95
2022-12-11T15:26:44.442Z,-1.88
2022-12-11T15:29:27.512Z,-1.89
2022-12-11T15:32:09.527Z,-1.95
2022-12-11T15:34:43.797Z,-1.97
2022-12-11T15:37:26.746Z,-1.96
2022-12-11T15:39:54.864Z,-1.91
2022-12-11T15:42:30.485Z,-1.85
2022-12-11T15:44:57.638Z,-1.82
2022-12-11T15:47:28.025Z,-1.78
2022-12-11T15:49:59.695Z,-1.94
2022-12-11T15:52:26.390Z,-2.01
2022-12-11T15:54:53.017Z,-1.93
2022-12-11T15:57:22.995Z,-1.92
2022-12-11T15:59:52.545Z,-1.86
2022-12-11T16:02:19.259Z,-1.94
2022-12-11T16:04:47.104Z,-2.03
2022-12-11T16:07:20.182Z,-2.04
2022-12-11T16:09:47.189Z,-2.12
2022-12-11T16:12:14.411Z,-2.12
2022-12-11T16:14:42.484Z,-2.12
2022-12-11T16:17:10.650Z,-2.08
2022-12-11T16:19:37.600Z,-2.06
2022-12-11T16:22:05.338Z,-2.08
2022-12-11T16:24:33.302Z,-2.01
2022-12-11T16:27:00.075Z,-2.05
2022-12-11T16:29:27.232Z,-2.10
2022-12-11T16:31:54.013Z,-2.08
2022-12-11T16:34:25.907Z,-2.09
2022-12-11T16:36:52.723Z,-2.08
2022-12-11T16:39:19.506Z,-2.09
2022-12-11T16:41:46.161Z,-1.96
2022-12-11T16:44:12.875Z,-2.01
2022-12-11T16:46:39.592Z,-1.96
2022-12-11T16:49:06.486Z,-1.93
2022-12-11T16:51:33.190Z,-1.85
2022-12-11T16:53:59.905Z,-1.87
2022-12-11T16:56:26.895Z,-1.91
2022-12-11T16:58:53.593Z,-1.83
2022-12-11T17:01:20.357Z,-2.00
2022-12-11T17:03:47.171Z,-1.97
2022-12-11T17:06:17.281Z,-1.95
2022-12-11T17:08:44.509Z,-2.02
2022-12-11T17:11:15.182Z,-2.06
2022-12-11T17:13:42.585Z,-2.06
2022-12-11T17:16:13.042Z,-2.07
2022-12-11T17:18:40.336Z,-2.01
2022-12-11T17:21:09.159Z,-2.07
2022-12-11T17:23:36.235Z,-2.01
2022-12-11T17:26:03.907Z,-2.17
2022-12-11T17:28:31.156Z,-2.18
2022-12-11T17:30:58.352Z,-2.15
2022-12-11T17:33:25.122Z,-2.22
2022-12-11T17:35:51.852Z,-2.26
2022-12-11T17:38:18.540Z,-2.22
2022-12-11T17:40:45.215Z,-2.29
2022-12-11T17:43:12.495Z,-2.31
2022-12-11T17:45:42.825Z,-2.31
2022-12-11T17:48:09.562Z,-2.32
2022-12-11T17:50:40.487Z,-2.30
2022-12-11T17:53:07.645Z,-2.35
2022-12-11T17:55:36.116Z,-2.38
2022-12-11T17:58:03.083Z,-2.41
2022-12-11T18:00:33.270Z,-2.30
2022-12-11T18:03:00.244Z,-2.28
2022-12-11T18:05:26.939Z,-2.31
2022-12-11T18:07:57.773Z,-2.24
2022-12-11T18:10:25.183Z,-2.30
2022-12-11T18:12:52.187Z,-2.29
2022-12-11T18:15:19.658Z,-2.38
2022-12-11T18:17:46.903Z,-2.36
2022-12-11T18:20:16.035Z,-2.32
2022-12-11T18:22:43.570Z,-2.32
2022-12-11T18:25:11.991Z,-2.42
2022-12-11T18:27:39.081Z,-2.48
2022-12-11T18:30:06.207Z,-2.49
2022-12-11T18:32:33.680Z,-2.48
2022-12-11T18:35:00.390Z,-2.39
2022-12-11T18:37:28.221Z,-2.42
2022-12-11T18:39:55.022Z,-2.46
2022-12-11T18:42:32.743Z,-2.44
2022-12-11T18:45:00.223Z,-2.44
2022-12-11T18:47:26.956Z,-2.46
2022-12-11T18:49:54.071Z,-2.48
2022-12-11T18:52:20.736Z,-2.54
2022-12-11T18:54:47.588Z,-2.57
2022-12-11T18:57:14.246Z,-2.57
2022-12-11T18:59:40.939Z,-2.60
2022-12-11T19:02:08.128Z,-2.48
2022-12-11T19:04:36.191Z,-2.50
2022-12-11T19:07:06.057Z,-2.54
2022-12-11T19:09:37.762Z,-2.54
2022-12-11T19:12:05.522Z,-2.53
2022-12-11T19:14:32.222Z,-2.54
2022-12-11T19:16:59.005Z,-2.50
2022-12-11T19:19:25.804Z,-2.53
2022-12-11T19:21:55.724Z,-2.50
2022-12-11T19:24:24.314Z,-2.50
2022-12-11T19:26:51.426Z,-2.48
2022-12-11T19:29:22.632Z,-2.50
2022-12-11T19:31:49.804Z,-2.46
2022-12-11T19:34:16.973Z,-2.66
2022-12-11T19:36:44.039Z,-2.68
2022-12-11T19:39:13.240Z,-2.60
2022-12-11T19:41:40.903Z,-2.71
2022-12-11T19:44:08.156Z,-2.82
2022-12-11T19:46:35.205Z,-2.64
2022-12-11T19:49:02.248Z,-2.78
2022-12-11T19:51:33.877Z,-2.77
2022-12-11T19:54:03.032Z,-2.79
2022-12-11T19:56:30.043Z,-2.86
2022-12-11T19:58:57.112Z,-2.92
2022-12-11T20:01:28.534Z,-2.96
2022-12-11T20:03:57.743Z,-2.96
2022-12-11T20:06:24.930Z,-2.98
2022-12-11T20:08:51.688Z,-3.03
2022-12-11T20:11:19.213Z,-2.93
2022-12-11T20:13:47.529Z,-3.02
2022-12-11T20:16:15.581Z,-3.00
2022-12-11T20:18:42.651Z,-3.03
2022-12-11T20:21:13.287Z,-3.13
2022-12-11T20:23:40.234Z,-3.17
2022-12-11T20:26:10.139Z,-2.99
2022-12-11T20:28:37.229Z,-3.12
2022-12-11T20:31:16.412Z,-3.10
2022-12-11T20:33:46.730Z,-3.11
2022-12-11T20:36:17.205Z,-3.11
2022-12-11T20:38:44.249Z,-3.16
2022-12-11T20:41:14.951Z,-3.21
2022-12-11T20:43:41.792Z,-3.25
2022-12-11T20:46:10.714Z,-3.26
2022-12-11T20:48:38.225Z,-3.14
2022-12-11T20:51:07.565Z,-3.27
2022-12-11T20:53:35.227Z,-3.26
2022-12-11T20:56:03.041Z,-3.30
2022-12-11T20:58:29.754Z,-3.30
2022-12-11T21:00:56.421Z,-3.28
2022-12-11T21:03:23.058Z,-3.26
2022-12-11T21:05:49.799Z,-3.28
2022-12-11T21:08:16.489Z,-3.33
2022-12-11T21:10:46.339Z,-3.32
2022-12-11T21:13:12.973Z,-3.28
2022-12-11T21:15:40.680Z,-3.26
2022-12-11T21:18:08.159Z,-3.30
2022-12-11T21:20:35.685Z,-3.36
2022-12-11T21:23:03.008Z,-3.38
2022-12-11T21:25:29.805Z,-3.36
2022-12-11T21:27:56.417Z,-3.30
2022-12-11T21:30:23.368Z,-3.40
2022-12-11T21:32:50.064Z,-3.40
2022-12-11T21:35:16.881Z,-3.47
2022-12-11T21:37:43.652Z,-3.48
2022-12-11T21:40:10.733Z,-3.44
2022-12-11T21:42:37.413Z,-3.32
2022-12-11T21:47:51.361Z,-3.37
2022-12-11T21:50:18.185Z,-3.35
2022-12-11T21:52:44.911Z,-3.36
2022-12-11T21:55:12.736Z,-3.33
2022-12-11T21:57:39.756Z,-3.31
2022-12-11T22:00:07.114Z,-3.14
2022-12-11T22:02:39.065Z,-3.24
2022-12-11T22:05:07.946Z,-3.28
2022-12-11T22:07:34.713Z,-3.23
2022-12-11T22:10:01.451Z,-3.10
2022-12-11T22:12:29.034Z,-3.19
2022-12-11T22:14:56.066Z,-3.18
2022-12-11T22:17:22.931Z,-3.21
2022-12-11T22:19:52.003Z,-3.24
2022-12-11T22:22:19.336Z,-3.21
2022-12-11T22:24:46.832Z,-3.18
2022-12-11T22:27:15.124Z,-3.11
2022-12-11T22:29:44.635Z,-3.19
2022-12-11T22:32:11.295Z,-3.14
2022-12-11T22:34:37.933Z,-3.17
2022-12-11T22:37:04.579Z,-3.17
2022-12-11T22:39:31.249Z,-3.01
2022-12-11T22:41:59.637Z,-3.13
2022-12-11T22:44:26.334Z,-3.17
2022-12-11T22:46:53.026Z,-3.25
2022-12-11T22:49:20.444Z,-3.23
2022-12-11T22:51:47.777Z,-3.30
2022-12-11T22:54:14.487Z,-3.31
2022-12-11T22:56:41.160Z,-3.33
2022-12-11T22:59:07.770Z,-3.35
2022-12-11T23:01:35.674Z,-3.39
2022-12-11T23:04:02.341Z,-3.29
2022-12-11T23:06:29.237Z,-3.36
2022-12-11T23:09:00.398Z,-3.38
2022-12-11T23:11:31.117Z,-3.36
2022-12-11T23:13:58.038Z,-3.29
2022-12-11T23:16:26.447Z,-3.14
2022-12-11T23:18:54.698Z,-3.22
2022-12-11T23:21:22.569Z,-3.17
2022-12-11T23:23:52.535Z,-3.22
2022-12-11T23:26:20.293Z,-3.22
2022-12-11T23:28:47.469Z,-3.35
2022-12-11T23:31:14.618Z,-3.29
2022-12-11T23:33:41.681Z,-3.36
2022-12-11T23:36:09.298Z,-3.33
2022-12-11T23:38:36.283Z,-3.23
2022-12-11T23:41:04.218Z,-3.24
2022-12-11T23:43:31.044Z,-3.32
2022-12-11T23:45:57.881Z,-3.30
2022-12-11T23:48:24.697Z,-3.36
2022-12-11T23:50:51.426Z,-3.43
2022-12-11T23:53:18.093Z,-3.44
2022-12-11T23:55:45.533Z,-3.50
2022-12-11T23:58:12.859Z,-3.55
